createdAt,value
2018-06-04T00:00:23.325Z,0.00
2018-06-04T00:01:23.310Z,0.00
2018-06-04T00:02:23.297Z,0.00
2018-06-04T00:03:23.289Z,0.00
2018-06-04T00:04:23.270Z,0.00
2018-06-04T00:05:23.264Z,0.00
2018-06-04T00:06:56.454Z,0.00
2018-06-04T00:07:23.230Z,0.00
2018-06-04T00:08:23.217Z,0.00
2018-06-04T00:09:23.202Z,0.00
2018-06-04T00:10:23.191Z,0.00
2018-06-04T00:11:23.177Z,0.00
2018-06-04T00:12:23.171Z,0.00
2018-06-04T00:13:23.300Z,0.00
2018-06-04T00:14:23.136Z,0.00
2018-06-04T00:15:23.123Z,0.00
2018-06-04T00:16:23.110Z,0.00
2018-06-04T00:17:23.096Z,0.00
2018-06-04T00:18:23.084Z,0.00
2018-06-04T00:19:23.070Z,0.00
2018-06-04T00:20:23.056Z,0.00
2018-06-04T00:21:23.044Z,0.00
2018-06-04T00:22:23.032Z,0.00
2018-06-04T00:23:23.017Z,0.00
2018-06-04T00:24:23.003Z,0.00
2018-06-04T00:25:22.987Z,0.00
2018-06-04T00:26:22.974Z,0.00
2018-06-04T00:27:22.962Z,0.00
2018-06-04T00:28:22.955Z,0.00
2018-06-04T00:29:22.934Z,0.00
2018-06-04T00:30:22.920Z,0.00
2018-06-04T00:31:22.918Z,0.00
2018-06-04T00:32:22.941Z,0.00
2018-06-04T00:33:22.886Z,0.00
2018-06-04T00:34:22.867Z,0.00
2018-06-04T00:35:22.856Z,0.00
2018-06-04T00:36:22.841Z,0.00
2018-06-04T00:37:22.831Z,0.00
2018-06-04T00:38:22.811Z,0.00
2018-06-04T00:39:22.800Z,0.00
2018-06-04T00:40:22.799Z,0.00
2018-06-04T00:41:22.771Z,0.00
2018-06-04T00:42:22.757Z,0.00
2018-06-04T00:43:22.746Z,0.00
2018-06-04T00:44:22.731Z,0.00
2018-06-04T00:45:22.718Z,0.00
2018-06-04T00:46:22.703Z,0.00
2018-06-04T00:47:22.691Z,0.00
2018-06-04T00:48:22.678Z,0.00
2018-06-04T00:49:22.663Z,0.00
2018-06-04T00:50:22.699Z,0.00
2018-06-04T00:51:22.636Z,0.00
2018-06-04T00:52:22.631Z,0.00
2018-06-04T00:53:22.616Z,0.00
2018-06-04T00:54:22.597Z,0.00
2018-06-04T00:55:22.583Z,0.00
2018-06-04T00:56:22.570Z,0.00
2018-06-04T00:57:22.552Z,0.00
2018-06-04T00:58:22.541Z,0.00
2018-06-04T00:59:22.531Z,0.00
2018-06-04T01:00:22.514Z,0.00
2018-06-04T01:01:22.499Z,0.00
2018-06-04T01:02:22.485Z,0.00
2018-06-04T01:03:22.482Z,0.00
2018-06-04T01:04:22.461Z,0.00
2018-06-04T01:05:22.548Z,0.00
2018-06-04T01:06:22.433Z,0.00
2018-06-04T01:07:22.419Z,0.00
2018-06-04T01:08:22.406Z,0.00
2018-06-04T01:09:22.409Z,0.00
2018-06-04T01:10:22.377Z,0.00
2018-06-04T01:11:22.364Z,0.00
2018-06-04T01:12:22.352Z,0.00
2018-06-04T01:13:22.336Z,0.00
2018-06-04T01:14:22.323Z,0.00
2018-06-04T01:15:22.312Z,0.00
2018-06-04T01:16:22.298Z,0.00
2018-06-04T01:17:22.333Z,0.00
2018-06-04T01:18:22.272Z,0.00
2018-06-04T01:19:22.256Z,0.00
2018-06-04T01:20:22.241Z,0.00
2018-06-04T01:21:22.228Z,0.00
2018-06-04T01:22:22.215Z,0.00
2018-06-04T01:23:22.209Z,0.00
2018-06-04T01:24:22.185Z,0.00
2018-06-04T01:25:22.175Z,0.00
2018-06-04T01:26:22.158Z,0.00
2018-06-04T01:27:22.145Z,0.00
2018-06-04T01:28:22.132Z,0.00
2018-06-04T01:29:22.118Z,0.00
2018-06-04T01:30:22.113Z,0.00
2018-06-04T01:31:22.092Z,0.00
2018-06-04T01:32:22.078Z,0.00
2018-06-04T01:33:22.063Z,0.00
2018-06-04T01:34:22.048Z,0.00
2018-06-04T01:35:22.035Z,0.00
2018-06-04T01:36:22.022Z,0.00
2018-06-04T01:37:22.006Z,0.00
2018-06-04T01:38:21.998Z,0.00
2018-06-04T01:39:21.979Z,0.00
2018-06-04T01:40:21.966Z,0.00
2018-06-04T01:41:21.956Z,0.00
2018-06-04T01:42:21.942Z,0.00
2018-06-04T01:43:21.925Z,0.00
2018-06-04T01:44:21.912Z,0.00
2018-06-04T01:45:21.896Z,0.00
2018-06-04T01:46:21.891Z,0.00
2018-06-04T01:47:21.872Z,0.00
2018-06-04T01:48:21.860Z,0.00
2018-06-04T01:49:21.844Z,0.00
2018-06-04T01:50:21.828Z,0.00
2018-06-04T01:51:21.820Z,0.00
2018-06-04T01:52:21.803Z,0.00
2018-06-04T01:53:21.787Z,0.00
2018-06-04T01:54:21.772Z,0.00
2018-06-04T01:55:21.763Z,0.00
2018-06-04T01:56:21.747Z,0.00
2018-06-04T01:57:21.731Z,0.00
2018-06-04T01:58:21.719Z,0.00
2018-06-04T01:59:21.705Z,0.00
2018-06-04T02:00:21.693Z,0.00
2018-06-04T02:01:21.677Z,0.00
2018-06-04T02:02:21.663Z,0.00
2018-06-04T02:03:21.649Z,0.00
2018-06-04T02:04:21.638Z,0.00
2018-06-04T02:06:30.709Z,0.00
2018-06-04T02:07:28.011Z,0.00
2018-06-04T02:08:27.999Z,0.00
2018-06-04T02:09:27.987Z,0.00
2018-06-04T02:10:27.969Z,0.00
2018-06-04T02:11:28.004Z,0.00
2018-06-04T02:12:27.940Z,0.00
2018-06-04T02:13:27.926Z,0.00
2018-06-04T02:14:27.931Z,0.00
2018-06-04T02:15:27.898Z,0.00
2018-06-04T02:16:27.882Z,0.00
2018-06-04T02:17:27.870Z,0.00
2018-06-04T02:18:27.859Z,0.00
2018-06-04T02:19:27.847Z,0.00
2018-06-04T02:20:27.827Z,0.00
2018-06-04T02:21:27.814Z,0.00
2018-06-04T02:22:27.799Z,0.00
2018-06-04T02:23:27.784Z,0.00
2018-06-04T02:24:27.769Z,0.00
2018-06-04T02:25:27.756Z,0.00
2018-06-04T02:26:30.886Z,0.00
2018-06-04T02:27:27.727Z,0.00
2018-06-04T02:28:27.712Z,0.00
2018-06-04T02:29:27.700Z,0.00
2018-06-04T02:30:28.293Z,0.00
2018-06-04T02:31:27.670Z,0.00
2018-06-04T02:33:20.624Z,0.00
2018-06-04T02:34:16.777Z,0.00
2018-06-04T02:35:20.392Z,0.00
2018-06-04T02:36:18.170Z,0.00
2018-06-04T02:37:16.732Z,0.00
2018-06-04T02:38:16.715Z,0.00
2018-06-04T02:39:16.702Z,0.00
2018-06-04T02:40:16.688Z,0.00
2018-06-04T02:41:19.902Z,0.00
2018-06-04T02:42:17.266Z,0.00
2018-06-04T02:44:26.110Z,0.00
2018-06-04T02:45:26.168Z,0.00
2018-06-04T02:46:26.078Z,0.00
2018-06-04T02:47:26.265Z,0.00
2018-06-04T02:49:10.224Z,0.00
2018-06-04T02:50:10.382Z,0.00
2018-06-04T02:51:14.239Z,0.00
2018-06-04T03:00:21.439Z,0.00
2018-06-04T03:01:21.463Z,5.63
2018-06-04T03:02:21.407Z,5.63
2018-06-04T03:03:21.394Z,5.63
2018-06-04T03:05:20.582Z,5.63
2018-06-04T03:06:20.563Z,5.63
2018-06-04T03:07:23.774Z,5.63
2018-06-04T03:08:23.758Z,5.63
2018-06-04T03:09:20.516Z,5.63
2018-06-04T03:10:23.733Z,5.63
2018-06-04T03:11:20.486Z,11.25
2018-06-04T03:12:20.473Z,11.25
2018-06-04T03:13:20.456Z,11.25
2018-06-04T03:14:20.440Z,11.25
2018-06-04T03:16:19.930Z,11.25
2018-06-04T03:17:19.913Z,16.88
2018-06-04T03:18:19.906Z,16.88
2018-06-04T03:19:19.882Z,16.88
2018-06-04T03:20:19.866Z,16.88
2018-06-04T03:21:19.852Z,16.88
2018-06-04T03:22:19.839Z,22.50
2018-06-04T03:23:23.254Z,22.50
2018-06-04T03:25:27.747Z,22.50
2018-06-04T03:26:24.097Z,28.13
2018-06-04T03:27:24.084Z,28.13
2018-06-04T03:28:24.068Z,28.13
2018-06-04T03:29:24.054Z,33.75
2018-06-04T03:30:24.038Z,33.75
2018-06-04T03:31:24.025Z,33.75
2018-06-04T03:32:57.228Z,39.38
2018-06-04T03:33:23.995Z,39.38
2018-06-04T03:34:23.988Z,39.38
2018-06-04T03:35:23.964Z,45.00
2018-06-04T03:36:23.955Z,45.00
2018-06-04T03:37:23.937Z,45.00
2018-06-04T03:38:23.922Z,50.63
2018-06-04T03:39:23.907Z,50.63
2018-06-04T03:40:23.892Z,56.25
2018-06-04T03:41:23.887Z,56.25
2018-06-04T03:42:57.082Z,61.88
2018-06-04T03:43:23.851Z,61.88
2018-06-04T03:44:23.853Z,61.88
2018-06-04T03:45:23.829Z,61.88
2018-06-04T03:46:23.807Z,67.50
2018-06-04T03:47:23.793Z,67.50
2018-06-04T03:48:23.781Z,67.50
2018-06-04T03:49:23.765Z,73.13
2018-06-04T03:50:23.759Z,73.13
2018-06-04T03:51:23.735Z,78.75
2018-06-04T03:52:23.720Z,78.75
2018-06-04T03:53:23.707Z,84.38
2018-06-04T03:54:23.720Z,84.38
2018-06-04T03:55:23.678Z,90.00
2018-06-04T03:56:23.669Z,90.00
2018-06-04T03:57:23.650Z,95.63
2018-06-04T03:58:23.638Z,95.63
2018-06-04T03:59:23.623Z,101.25
2018-06-04T04:00:23.608Z,101.25
2018-06-04T04:01:23.595Z,106.88
2018-06-04T04:02:23.580Z,112.50
2018-06-04T04:03:23.567Z,112.50
2018-06-04T04:04:23.550Z,118.13
2018-06-04T04:05:23.537Z,118.13
2018-06-04T04:06:23.522Z,118.13
2018-06-04T04:07:23.509Z,123.75
2018-06-04T04:08:23.516Z,123.75
2018-06-04T04:09:23.530Z,129.38
2018-06-04T04:10:23.466Z,129.38
2018-06-04T04:11:23.455Z,135.00
2018-06-04T04:12:23.489Z,135.00
2018-06-04T04:13:23.425Z,140.63
2018-06-04T04:14:23.409Z,140.63
2018-06-04T04:15:23.400Z,146.25
2018-06-04T04:16:23.383Z,146.25
2018-06-04T04:17:23.370Z,151.88
2018-06-04T04:18:23.364Z,151.88
2018-06-04T04:19:23.393Z,157.50
2018-06-04T04:20:23.335Z,157.50
2018-06-04T04:21:23.314Z,163.13
2018-06-04T04:22:23.298Z,168.75
2018-06-04T04:23:23.293Z,168.75
2018-06-04T04:24:23.272Z,174.38
2018-06-04T04:25:23.264Z,174.38
2018-06-04T04:26:23.244Z,180.00
2018-06-04T04:27:23.230Z,180.00
2018-06-04T04:28:23.220Z,185.63
2018-06-04T04:29:23.205Z,185.63
2018-06-04T04:30:23.187Z,191.25
2018-06-04T04:31:23.174Z,191.25
2018-06-04T04:32:23.162Z,196.88
2018-06-04T04:33:23.146Z,196.88
2018-06-04T04:34:23.146Z,196.88
2018-06-04T04:35:23.121Z,202.50
2018-06-04T04:36:23.107Z,202.50
2018-06-04T04:37:23.094Z,208.13
2018-06-04T04:38:23.087Z,208.13
2018-06-04T04:39:23.065Z,213.75
2018-06-04T04:40:23.052Z,219.38
2018-06-04T04:41:23.040Z,219.38
2018-06-04T04:42:23.024Z,225.00
2018-06-04T04:43:23.010Z,225.00
2018-06-04T04:44:22.996Z,230.63
2018-06-04T04:45:22.990Z,230.63
2018-06-04T04:46:25.592Z,236.25
2018-06-04T04:47:22.956Z,236.25
2018-06-04T04:48:22.941Z,241.88
2018-06-04T04:49:22.928Z,241.88
2018-06-04T04:50:22.914Z,247.50
2018-06-04T04:51:22.901Z,247.50
2018-06-04T04:52:22.887Z,253.13
2018-06-04T04:53:22.875Z,253.13
2018-06-04T04:54:22.859Z,258.75
2018-06-04T04:55:22.846Z,258.75
2018-06-04T04:56:24.250Z,264.38
2018-06-04T04:57:22.819Z,264.38
2018-06-04T04:58:22.806Z,264.38
2018-06-04T05:00:53.112Z,275.63
2018-06-04T05:02:54.775Z,281.25
2018-06-04T05:03:34.536Z,281.25
2018-06-04T05:04:37.153Z,286.88
2018-06-04T05:05:34.509Z,286.88
2018-06-04T05:06:34.493Z,292.50
2018-06-04T05:07:38.113Z,298.13
2018-06-04T05:09:18.742Z,303.75
2018-06-04T05:10:18.728Z,309.38
2018-06-04T05:11:18.714Z,315.00
2018-06-04T05:12:19.019Z,320.63
2018-06-04T05:13:18.687Z,326.25
2018-06-04T05:14:18.674Z,331.88
2018-06-04T05:15:18.659Z,331.88
2018-06-04T05:17:02.971Z,337.50
2018-06-04T05:18:02.957Z,343.13
2018-06-04T05:19:02.946Z,348.75
2018-06-04T05:20:02.936Z,354.38
2018-06-04T05:21:02.932Z,354.38
2018-06-04T05:22:03.320Z,360.00
2018-06-04T05:23:02.892Z,360.00
2018-06-04T05:27:49.195Z,382.50
2018-06-04T05:28:49.181Z,382.50
2018-06-04T05:29:49.176Z,388.13
2018-06-04T05:30:52.182Z,393.75
2018-06-04T05:31:49.791Z,399.38
2018-06-04T05:33:22.344Z,405.00
2018-06-04T05:36:02.389Z,421.88
2018-06-04T05:37:03.239Z,444.38
2018-06-04T05:38:02.371Z,483.75
2018-06-04T05:39:02.361Z,691.88
2018-06-04T05:40:02.336Z,905.63
2018-06-04T05:41:35.539Z,1035.00
2018-06-04T05:42:02.317Z,1113.75
2018-06-04T05:43:02.295Z,1147.50
2018-06-04T05:44:02.285Z,1125.00
2018-06-04T05:45:02.275Z,1181.25
2018-06-04T05:46:02.270Z,1231.88
2018-06-04T05:47:02.253Z,1305.00
2018-06-04T05:48:02.239Z,1400.63
2018-06-04T05:49:02.234Z,1518.75
2018-06-04T05:50:02.236Z,1597.50
2018-06-04T05:51:02.210Z,1608.75
2018-06-04T05:52:02.195Z,1546.88
2018-06-04T05:53:02.185Z,1518.75
2018-06-04T05:54:02.184Z,1496.25
2018-06-04T05:55:02.166Z,1440.00
2018-06-04T05:56:02.167Z,1417.50
2018-06-04T05:57:02.151Z,1468.13
2018-06-04T05:58:02.151Z,1490.63
2018-06-04T05:59:02.133Z,1451.25
2018-06-04T06:00:02.125Z,1473.75
2018-06-04T06:01:02.135Z,1569.38
2018-06-04T06:02:02.111Z,1636.88
2018-06-04T06:03:02.111Z,1608.75
2018-06-04T06:04:02.097Z,1648.13
2018-06-04T06:05:02.092Z,1648.13
2018-06-04T06:06:02.089Z,1710.00
2018-06-04T06:07:02.078Z,1670.63
2018-06-04T06:08:02.236Z,1614.38
2018-06-04T06:09:02.066Z,1631.25
2018-06-04T06:10:02.060Z,1648.13
2018-06-04T06:11:02.055Z,1687.50
2018-06-04T06:12:02.051Z,1698.75
2018-06-04T06:13:02.051Z,1794.38
2018-06-04T06:14:02.042Z,1839.38
2018-06-04T06:15:02.044Z,1816.88
2018-06-04T06:16:02.041Z,1901.25
2018-06-04T06:17:02.034Z,1884.38
2018-06-04T06:18:02.035Z,1935.00
2018-06-04T06:19:02.023Z,1985.63
2018-06-04T06:20:02.020Z,1996.88
2018-06-04T06:21:02.015Z,1935.00
2018-06-04T06:22:02.017Z,1968.75
2018-06-04T06:23:02.009Z,2053.13
2018-06-04T06:24:02.005Z,2098.13
2018-06-04T06:25:02.019Z,2075.63
2018-06-04T06:26:02.001Z,2171.25
2018-06-04T06:27:02.009Z,2205.00
2018-06-04T06:28:01.997Z,2188.13
2018-06-04T06:29:01.994Z,2171.25
2018-06-04T06:30:01.992Z,2148.75
2018-06-04T06:31:01.988Z,2160.00
2018-06-04T06:32:01.994Z,2176.88
2018-06-04T06:33:01.991Z,2227.50
2018-06-04T06:34:01.985Z,2182.50
2018-06-04T06:35:01.983Z,2188.13
2018-06-04T06:36:01.988Z,2278.13
2018-06-04T06:37:01.980Z,2340.00
2018-06-04T06:38:01.987Z,2317.50
2018-06-04T06:39:01.980Z,2283.75
2018-06-04T06:40:01.980Z,2266.88
2018-06-04T06:41:01.978Z,2210.63
2018-06-04T06:42:01.978Z,2199.38
2018-06-04T06:43:01.987Z,2334.38
2018-06-04T06:44:01.981Z,2441.25
2018-06-04T06:45:01.980Z,2356.88
2018-06-04T06:46:01.981Z,2295.00
2018-06-04T06:47:02.007Z,2216.25
2018-06-04T06:48:01.990Z,2289.38
2018-06-04T06:49:01.976Z,2283.75
2018-06-04T06:50:01.991Z,2199.38
2018-06-04T06:51:01.979Z,2193.75
2018-06-04T06:52:01.979Z,2137.50
2018-06-04T06:53:01.986Z,2154.38
2018-06-04T06:54:01.980Z,2115.00
2018-06-04T06:55:01.987Z,2103.75
2018-06-04T06:56:01.983Z,2131.88
2018-06-04T06:57:01.982Z,2120.63
2018-06-04T06:58:01.982Z,2137.50
2018-06-04T06:59:02.083Z,2176.88
2018-06-04T07:00:01.983Z,1766.25
2018-06-04T07:01:01.988Z,2092.50
2018-06-04T07:02:02.035Z,1766.25
2018-06-04T07:03:01.991Z,2452.50
2018-06-04T07:04:01.997Z,2058.75
2018-06-04T07:05:01.991Z,1811.25
2018-06-04T07:06:01.995Z,2446.88
2018-06-04T07:07:01.993Z,2475.00
2018-06-04T07:08:02.000Z,1535.63
2018-06-04T07:09:01.997Z,2576.25
2018-06-04T07:10:01.997Z,2767.50
2018-06-04T07:11:02.001Z,2205.00
2018-06-04T07:12:02.000Z,2992.50
2018-06-04T07:13:02.004Z,3048.75
2018-06-04T07:14:02.002Z,3003.75
2018-06-04T07:15:02.006Z,2964.38
2018-06-04T07:16:02.006Z,2930.63
2018-06-04T07:17:02.010Z,2908.13
2018-06-04T07:18:02.016Z,2896.88
2018-06-04T07:19:02.018Z,2902.50
2018-06-04T07:20:02.014Z,2694.38
2018-06-04T07:21:02.014Z,2520.00
2018-06-04T07:22:02.020Z,2497.50
2018-06-04T07:23:02.016Z,2148.75
2018-06-04T07:24:02.018Z,2002.50
2018-06-04T07:25:02.074Z,2531.25
2018-06-04T07:26:02.025Z,1771.88
2018-06-04T07:27:02.032Z,2053.13
2018-06-04T07:28:02.031Z,2278.13
2018-06-04T07:29:02.032Z,1940.63
2018-06-04T07:30:02.032Z,1873.13
2018-06-04T07:31:02.033Z,2334.38
2018-06-04T07:32:02.036Z,2227.50
2018-06-04T07:33:02.037Z,1231.88
2018-06-04T07:34:02.041Z,1333.13
2018-06-04T07:35:02.038Z,793.13
2018-06-04T07:36:02.041Z,1001.25
2018-06-04T07:37:02.063Z,793.13
2018-06-04T07:38:02.048Z,843.75
2018-06-04T07:39:02.041Z,1068.75
2018-06-04T07:40:02.050Z,765.00
2018-06-04T07:41:02.102Z,793.13
2018-06-04T07:42:02.045Z,765.00
2018-06-04T07:43:02.053Z,765.00
2018-06-04T07:44:02.056Z,765.00
2018-06-04T07:45:02.040Z,765.00
2018-06-04T07:46:02.042Z,765.00
2018-06-04T07:47:02.038Z,770.63
2018-06-04T07:48:02.038Z,765.00
2018-06-04T07:49:02.033Z,765.00
2018-06-04T07:50:02.038Z,787.50
2018-06-04T07:51:02.031Z,793.13
2018-06-04T07:52:02.034Z,826.88
2018-06-04T07:53:02.031Z,798.75
2018-06-04T07:54:02.024Z,787.50
2018-06-04T07:55:02.022Z,798.75
2018-06-04T07:56:02.016Z,781.88
2018-06-04T07:57:02.015Z,776.25
2018-06-04T07:58:02.011Z,765.00
2018-06-04T07:59:02.015Z,781.88
2018-06-04T08:00:02.004Z,781.88
2018-06-04T08:01:02.003Z,894.38
2018-06-04T08:02:01.996Z,888.75
2018-06-04T08:03:01.992Z,810.00
2018-06-04T08:04:01.989Z,810.00
2018-06-04T08:05:01.990Z,793.13
2018-06-04T08:06:01.989Z,798.75
2018-06-04T08:07:01.977Z,776.25
2018-06-04T08:08:01.972Z,798.75
2018-06-04T08:09:01.970Z,1136.25
2018-06-04T08:10:02.037Z,1248.75
2018-06-04T08:11:01.959Z,1237.50
2018-06-04T08:12:01.955Z,1580.63
2018-06-04T08:13:01.951Z,1023.75
2018-06-04T08:14:01.948Z,787.50
2018-06-04T08:15:01.943Z,765.00
2018-06-04T08:16:01.937Z,759.38
2018-06-04T08:17:01.933Z,781.88
2018-06-04T08:18:01.979Z,821.25
2018-06-04T08:19:01.932Z,742.50
2018-06-04T08:20:01.922Z,731.25
2018-06-04T08:21:01.916Z,731.25
2018-06-04T08:22:01.919Z,736.88
2018-06-04T08:23:01.905Z,748.13
2018-06-04T08:24:01.939Z,810.00
2018-06-04T08:25:01.898Z,765.00
2018-06-04T08:26:01.896Z,753.75
2018-06-04T08:27:01.886Z,759.38
2018-06-04T08:28:01.880Z,770.63
2018-06-04T08:29:01.873Z,770.63
2018-06-04T08:30:01.870Z,781.88
2018-06-04T08:31:01.866Z,776.25
2018-06-04T08:32:01.860Z,787.50
2018-06-04T08:33:01.859Z,860.63
2018-06-04T08:34:01.850Z,1051.88
2018-06-04T08:35:01.840Z,798.75
2018-06-04T08:36:01.836Z,810.00
2018-06-04T08:37:01.829Z,832.50
2018-06-04T08:38:01.832Z,883.13
2018-06-04T08:39:01.818Z,967.50
2018-06-04T08:40:01.819Z,911.25
2018-06-04T08:41:01.807Z,916.88
2018-06-04T08:42:01.799Z,866.25
2018-06-04T08:43:01.812Z,821.25
2018-06-04T08:44:01.790Z,1203.75
2018-06-04T08:45:01.782Z,911.25
2018-06-04T08:46:01.778Z,950.63
2018-06-04T08:47:01.777Z,984.38
2018-06-04T08:48:01.768Z,1023.75
2018-06-04T08:49:01.771Z,950.63
2018-06-04T08:50:01.765Z,1035.00
2018-06-04T08:51:01.794Z,832.50
2018-06-04T08:52:01.740Z,995.63
2018-06-04T08:53:01.743Z,1040.63
2018-06-04T08:54:01.730Z,1012.50
2018-06-04T08:55:01.739Z,990.00
2018-06-04T08:56:01.720Z,911.25
2018-06-04T08:57:01.715Z,928.13
2018-06-04T08:58:01.706Z,973.13
2018-06-04T08:59:01.849Z,1366.88
2018-06-04T09:00:01.698Z,2536.88
2018-06-04T09:01:01.690Z,3155.63
2018-06-04T09:02:01.736Z,2885.63
2018-06-04T09:03:01.677Z,1951.88
2018-06-04T09:04:01.671Z,1198.13
2018-06-04T09:05:01.669Z,1226.25
2018-06-04T09:06:01.661Z,1276.88
2018-06-04T09:07:01.658Z,1192.50
2018-06-04T09:08:01.653Z,1125.00
2018-06-04T09:09:01.649Z,894.38
2018-06-04T09:10:01.644Z,826.88
2018-06-04T09:11:01.639Z,922.50
2018-06-04T09:12:01.636Z,2812.50
2018-06-04T09:13:01.646Z,3712.50
2018-06-04T09:14:01.631Z,3667.50
2018-06-04T09:15:01.626Z,3639.38
2018-06-04T09:16:01.618Z,3639.38
2018-06-04T09:17:01.615Z,3684.38
2018-06-04T09:18:01.615Z,3718.13
2018-06-04T09:19:01.609Z,3268.13
2018-06-04T09:20:01.605Z,2289.38
2018-06-04T09:21:01.602Z,1366.88
2018-06-04T09:22:01.666Z,2548.13
2018-06-04T09:23:01.597Z,1243.13
2018-06-04T09:24:01.602Z,1063.13
2018-06-04T09:25:01.596Z,1102.50
2018-06-04T09:26:01.599Z,1035.00
2018-06-04T09:27:01.588Z,1023.75
2018-06-04T09:28:01.603Z,1102.50
2018-06-04T09:29:01.585Z,877.50
2018-06-04T09:30:01.582Z,787.50
2018-06-04T09:31:01.581Z,776.25
2018-06-04T09:32:01.583Z,1158.75
2018-06-04T09:33:01.572Z,1974.38
2018-06-04T09:34:01.570Z,3706.88
2018-06-04T09:35:01.567Z,3166.88
2018-06-04T09:36:01.563Z,2908.13
2018-06-04T09:37:01.561Z,3481.88
2018-06-04T09:38:01.557Z,2773.13
2018-06-04T09:39:01.556Z,1591.88
2018-06-04T09:40:01.564Z,4044.38
2018-06-04T09:41:01.550Z,4066.88
2018-06-04T09:42:01.548Z,2846.25
2018-06-04T09:43:01.546Z,1462.50
2018-06-04T09:44:01.542Z,1434.38
2018-06-04T09:45:01.545Z,1473.75
2018-06-04T09:46:01.543Z,1361.25
2018-06-04T09:47:01.545Z,1299.38
2018-06-04T09:48:01.543Z,1248.75
2018-06-04T09:49:01.541Z,1012.50
2018-06-04T09:50:01.531Z,916.88
2018-06-04T09:51:01.529Z,821.25
2018-06-04T09:52:01.526Z,933.75
2018-06-04T09:53:01.524Z,1125.00
2018-06-04T09:54:01.580Z,1220.63
2018-06-04T09:55:01.520Z,1198.13
2018-06-04T09:56:01.518Z,967.50
2018-06-04T09:57:01.522Z,849.38
2018-06-04T09:58:01.515Z,804.38
2018-06-04T09:59:01.508Z,742.50
2018-06-04T10:00:01.520Z,759.38
2018-06-04T10:01:01.507Z,804.38
2018-06-04T10:02:01.503Z,832.50
2018-06-04T10:03:01.521Z,832.50
2018-06-04T10:04:01.494Z,877.50
2018-06-04T10:05:01.490Z,905.63
2018-06-04T10:06:01.490Z,911.25
2018-06-04T10:07:01.481Z,843.75
2018-06-04T10:08:01.476Z,714.38
2018-06-04T10:09:01.479Z,635.63
2018-06-04T10:10:01.470Z,556.88
2018-06-04T10:11:01.463Z,506.25
2018-06-04T10:12:01.460Z,495.00
2018-06-04T10:13:01.464Z,495.00
2018-06-04T10:14:01.453Z,534.38
2018-06-04T10:15:01.447Z,601.88
2018-06-04T10:16:01.448Z,697.50
2018-06-04T10:17:01.438Z,815.63
2018-06-04T10:18:01.432Z,1046.25
2018-06-04T10:19:01.433Z,1625.63
2018-06-04T10:20:01.429Z,1940.63
2018-06-04T10:21:01.416Z,2880.00
2018-06-04T10:22:01.411Z,4111.88
2018-06-04T10:23:01.405Z,3695.63
2018-06-04T10:24:01.408Z,4044.38
2018-06-04T10:25:01.397Z,3684.38
2018-06-04T10:26:01.399Z,3549.38
2018-06-04T10:27:01.389Z,1721.25
2018-06-04T10:28:01.395Z,1091.25
2018-06-04T10:29:01.392Z,838.13
2018-06-04T10:30:01.381Z,731.25
2018-06-04T10:31:01.376Z,714.38
2018-06-04T10:32:01.375Z,686.25
2018-06-04T10:33:01.374Z,697.50
2018-06-04T10:34:01.369Z,720.00
2018-06-04T10:35:01.371Z,793.13
2018-06-04T10:36:01.374Z,855.00
2018-06-04T10:37:01.366Z,1035.00
2018-06-04T10:38:01.364Z,1681.88
2018-06-04T10:39:01.353Z,1822.50
2018-06-04T10:40:01.349Z,3105.00
2018-06-04T10:41:01.346Z,3600.00
2018-06-04T10:42:01.444Z,3706.88
2018-06-04T10:43:01.340Z,3740.63
2018-06-04T10:44:01.337Z,3785.63
2018-06-04T10:45:01.334Z,3667.50
2018-06-04T10:46:01.333Z,3701.25
2018-06-04T10:47:01.337Z,3813.75
2018-06-04T10:48:01.337Z,3549.38
2018-06-04T10:49:01.327Z,1350.00
2018-06-04T10:50:01.329Z,2328.75
2018-06-04T10:51:01.331Z,2773.13
2018-06-04T10:52:01.325Z,2683.13
2018-06-04T10:53:01.332Z,2356.88
2018-06-04T10:54:01.323Z,4016.25
2018-06-04T10:55:01.322Z,3825.00
2018-06-04T10:56:01.322Z,3808.13
2018-06-04T10:57:01.326Z,2666.25
2018-06-04T10:58:01.323Z,3594.38
2018-06-04T10:59:01.324Z,1698.75
2018-06-04T11:00:01.323Z,1265.63
2018-06-04T11:01:01.336Z,3858.75
2018-06-04T11:02:01.327Z,4252.50
2018-06-04T11:03:01.338Z,3864.38
2018-06-04T11:04:01.331Z,1417.50
2018-06-04T11:05:01.330Z,1080.00
2018-06-04T11:06:01.331Z,1732.50
2018-06-04T11:07:01.340Z,4010.63
2018-06-04T11:08:01.341Z,2829.38
2018-06-04T11:09:01.335Z,1710.00
2018-06-04T11:10:01.336Z,1096.88
2018-06-04T11:11:01.346Z,2784.38
2018-06-04T11:12:01.338Z,3847.50
2018-06-04T11:13:01.350Z,3695.63
2018-06-04T11:14:01.346Z,1608.75
2018-06-04T11:15:01.341Z,1518.75
2018-06-04T11:16:01.344Z,1918.13
2018-06-04T11:17:01.345Z,1530.00
2018-06-04T11:18:01.346Z,4100.63
2018-06-04T11:19:01.354Z,4005.00
2018-06-04T11:20:01.356Z,3757.50
2018-06-04T11:21:01.359Z,3740.63
2018-06-04T11:22:01.352Z,3712.50
2018-06-04T11:23:01.406Z,3616.88
2018-06-04T11:24:01.356Z,3628.13
2018-06-04T11:25:01.362Z,3144.38
2018-06-04T11:26:01.395Z,3076.88
2018-06-04T11:27:01.362Z,3431.25
2018-06-04T11:28:01.363Z,3588.75
2018-06-04T11:29:01.369Z,2610.00
2018-06-04T11:30:01.371Z,1445.63
2018-06-04T11:31:01.373Z,1125.00
2018-06-04T11:32:01.375Z,1175.63
2018-06-04T11:33:01.381Z,1254.38
2018-06-04T11:34:01.379Z,3588.75
2018-06-04T11:35:01.385Z,2891.25
2018-06-04T11:36:01.380Z,995.63
2018-06-04T11:37:01.378Z,911.25
2018-06-04T11:38:01.386Z,945.00
2018-06-04T11:39:01.398Z,1006.88
2018-06-04T11:40:01.380Z,3228.75
2018-06-04T11:41:01.380Z,3172.50
2018-06-04T11:42:01.382Z,1001.25
2018-06-04T11:43:01.384Z,894.38
2018-06-04T11:44:01.381Z,843.75
2018-06-04T11:45:01.380Z,1046.25
2018-06-04T11:46:01.382Z,1001.25
2018-06-04T11:47:01.379Z,995.63
2018-06-04T11:48:01.377Z,990.00
2018-06-04T11:49:01.376Z,1006.88
2018-06-04T11:50:01.375Z,1012.50
2018-06-04T11:51:01.378Z,973.13
2018-06-04T11:52:01.370Z,950.63
2018-06-04T11:53:01.373Z,916.88
2018-06-04T11:54:01.368Z,900.00
2018-06-04T11:55:01.364Z,922.50
2018-06-04T11:56:01.363Z,950.63
2018-06-04T11:57:01.359Z,916.88
2018-06-04T11:58:01.356Z,843.75
2018-06-04T11:59:01.359Z,900.00
2018-06-04T12:00:01.355Z,1046.25
2018-06-04T12:01:01.346Z,1074.38
2018-06-04T12:02:01.344Z,1023.75
2018-06-04T12:03:01.340Z,956.25
2018-06-04T12:04:01.337Z,860.63
2018-06-04T12:05:01.342Z,810.00
2018-06-04T12:06:01.338Z,770.63
2018-06-04T12:07:01.333Z,759.38
2018-06-04T12:08:01.334Z,742.50
2018-06-04T12:09:01.318Z,725.63
2018-06-04T12:10:01.318Z,720.00
2018-06-04T12:11:01.315Z,765.00
2018-06-04T12:12:01.305Z,855.00
2018-06-04T12:13:01.300Z,939.38
2018-06-04T12:14:01.305Z,967.50
2018-06-04T12:15:01.292Z,939.38
2018-06-04T12:16:01.286Z,877.50
2018-06-04T12:17:01.282Z,815.63
2018-06-04T12:18:01.277Z,765.00
2018-06-04T12:19:01.271Z,731.25
2018-06-04T12:20:01.269Z,714.38
2018-06-04T12:21:01.263Z,703.13
2018-06-04T12:22:01.263Z,720.00
2018-06-04T12:23:01.860Z,658.13
2018-06-04T12:24:01.252Z,669.38
2018-06-04T12:25:01.241Z,720.00
2018-06-04T12:26:01.241Z,646.88
2018-06-04T12:27:01.235Z,680.63
2018-06-04T12:28:01.233Z,663.75
2018-06-04T12:29:01.224Z,658.13
2018-06-04T12:30:01.222Z,641.25
2018-06-04T12:31:01.212Z,646.88
2018-06-04T12:32:01.207Z,697.50
2018-06-04T12:33:01.212Z,708.75
2018-06-04T12:34:01.191Z,680.63
2018-06-04T12:35:01.185Z,652.50
2018-06-04T12:36:01.179Z,641.25
2018-06-04T12:37:01.182Z,630.00
2018-06-04T12:38:01.169Z,601.88
2018-06-04T12:39:01.160Z,590.63
2018-06-04T12:40:01.158Z,613.13
2018-06-04T12:41:01.151Z,607.50
2018-06-04T12:42:01.144Z,624.38
2018-06-04T12:43:01.135Z,658.13
2018-06-04T12:44:01.141Z,686.25
2018-06-04T12:45:01.133Z,663.75
2018-06-04T12:46:01.125Z,613.13
2018-06-04T12:47:01.111Z,579.38
2018-06-04T12:48:01.142Z,556.88
2018-06-04T12:49:01.100Z,540.00
2018-06-04T12:50:01.097Z,534.38
2018-06-04T12:51:01.092Z,540.00
2018-06-04T12:52:01.081Z,551.25
2018-06-04T12:53:01.084Z,556.88
2018-06-04T12:54:01.068Z,573.75
2018-06-04T12:55:01.063Z,601.88
2018-06-04T12:56:01.055Z,641.25
2018-06-04T12:57:01.058Z,635.63
2018-06-04T12:58:01.053Z,601.88